createdAt,value
2022-08-17T00:02:25.232Z,35.20
2022-08-17T00:04:54.368Z,36.17
2022-08-17T00:07:21.697Z,35.03
2022-08-17T00:09:48.611Z,39.13
2022-08-17T00:12:43.787Z,37.28
2022-08-17T00:15:03.930Z,43.03
2022-08-17T00:17:31.314Z,44.92
2022-08-17T00:20:00.501Z,43.80
2022-08-17T00:22:32.649Z,40.55
2022-08-17T00:25:07.615Z,44.20
2022-08-17T00:27:40.477Z,43.58
2022-08-17T00:30:11.329Z,39.28
2022-08-17T00:33:23.467Z,34.65
2022-08-17T00:35:35.545Z,36.55
2022-08-17T00:38:05.378Z,41.25
2022-08-17T00:40:40.601Z,49.85
2022-08-17T00:43:55.624Z,38.33
2022-08-17T00:49:38.707Z,43.85
2022-08-17T00:52:15.818Z,37.08
2022-08-17T00:54:54.594Z,38.72
2022-08-17T00:57:32.498Z,36.33
2022-08-17T01:00:09.554Z,41.00
2022-08-17T01:02:42.253Z,37.20
2022-08-17T01:05:16.459Z,35.10
2022-08-17T01:07:50.838Z,38.25
2022-08-17T01:11:00.679Z,37.95
2022-08-17T01:13:11.515Z,37.72
2022-08-17T01:15:41.668Z,43.72
2022-08-17T01:18:16.249Z,41.95
2022-08-17T01:20:54.490Z,42.67
2022-08-17T01:23:29.677Z,42.33
2022-08-17T01:26:00.976Z,41.38
2022-08-17T01:28:54.203Z,43.88
2022-08-17T01:31:34.069Z,46.50
2022-08-17T01:34:04.973Z,48.55
2022-08-17T01:36:31.931Z,48.63
2022-08-17T01:39:01.384Z,47.63
2022-08-17T01:41:36.771Z,42.70
2022-08-17T01:44:06.648Z,43.30
2022-08-17T01:46:36.388Z,43.75
2022-08-17T01:49:08.493Z,44.15
2022-08-17T01:51:35.596Z,43.17
2022-08-17T01:54:05.692Z,43.45
2022-08-17T01:56:35.639Z,44.13
2022-08-17T01:59:03.257Z,51.63
2022-08-17T02:01:32.416Z,46.78
2022-08-17T02:04:01.076Z,41.85
2022-08-17T02:06:52.558Z,48.58
2022-08-17T02:09:25.309Z,42.53
2022-08-17T02:11:56.748Z,44.83
2022-08-17T02:14:24.898Z,48.00
2022-08-17T02:17:02.015Z,47.67
2022-08-17T02:19:42.053Z,49.95
2022-08-17T02:22:36.247Z,47.40
2022-08-17T02:25:18.276Z,47.50
2022-08-17T02:28:24.797Z,47.95
2022-08-17T02:31:21.767Z,50.47
2022-08-17T02:34:10.140Z,48.30
2022-08-17T02:37:03.661Z,49.92
2022-08-17T02:39:32.599Z,44.63
2022-08-17T02:42:04.188Z,43.50
2022-08-17T02:44:39.877Z,44.22
2022-08-17T02:47:08.860Z,45.92
2022-08-17T02:49:36.237Z,45.08
2022-08-17T02:52:05.365Z,43.75
2022-08-17T02:54:39.963Z,46.05
2022-08-17T02:57:10.476Z,50.33
2022-08-17T02:59:46.813Z,43.17
2022-08-17T03:02:16.101Z,46.45
2022-08-17T03:04:43.116Z,44.08
2022-08-17T03:07:10.054Z,40.88
2022-08-17T03:09:36.922Z,47.42
2022-08-17T03:12:09.634Z,53.45
2022-08-17T03:14:41.551Z,49.08
2022-08-17T03:17:10.777Z,46.08
2022-08-17T03:19:43.098Z,47.38
2022-08-17T03:22:36.568Z,49.15
2022-08-17T03:25:09.294Z,44.40
2022-08-17T03:27:39.425Z,51.30
2022-08-17T03:30:15.829Z,49.45
2022-08-17T03:32:48.664Z,51.40
2022-08-17T03:35:22.265Z,46.80
2022-08-17T03:38:00.004Z,51.20
2022-08-17T03:40:34.626Z,48.10
2022-08-17T03:43:17.478Z,51.28
2022-08-17T03:46:03.261Z,47.78
2022-08-17T03:48:49.262Z,50.10
2022-08-17T03:51:43.118Z,46.78
2022-08-17T03:54:29.193Z,40.97
2022-08-17T03:57:05.729Z,49.55
2022-08-17T03:59:33.276Z,56.03
2022-08-17T04:02:09.106Z,51.45
2022-08-17T04:04:36.942Z,45.05
2022-08-17T04:07:04.238Z,48.38
2022-08-17T04:09:31.155Z,46.42
2022-08-17T04:12:02.443Z,48.35
2022-08-17T04:14:39.176Z,47.55
2022-08-17T04:17:31.082Z,47.92
2022-08-17T04:19:58.386Z,50.88
2022-08-17T04:22:44.414Z,46.33
2022-08-17T04:25:26.659Z,56.10
2022-08-17T04:28:04.369Z,49.45
2022-08-17T04:30:55.895Z,52.63
2022-08-17T04:36:39.215Z,44.08
2022-08-17T04:39:06.145Z,50.15
2022-08-17T04:41:51.623Z,55.05
2022-08-17T04:44:36.964Z,56.67
2022-08-17T04:47:05.253Z,55.42
2022-08-17T04:49:32.710Z,60.25
2022-08-17T04:52:04.378Z,56.97
2022-08-17T04:54:31.537Z,58.28
2022-08-17T04:57:01.736Z,53.28
2022-08-17T04:59:28.527Z,55.40
2022-08-17T05:01:55.601Z,57.67
2022-08-17T05:04:33.891Z,56.08
2022-08-17T05:07:01.720Z,56.80
2022-08-17T05:09:29.190Z,59.22
2022-08-17T05:11:56.282Z,53.78
2022-08-17T05:14:32.268Z,59.90
2022-08-17T05:17:11.756Z,53.47
2022-08-17T05:19:47.605Z,55.03
2022-08-17T05:22:50.554Z,51.88
2022-08-17T05:25:13.389Z,52.17
2022-08-17T05:27:43.259Z,52.92
2022-08-17T05:30:11.699Z,48.00
2022-08-17T05:33:08.910Z,50.00
2022-08-17T05:35:52.996Z,48.90
2022-08-17T05:38:21.501Z,46.47
2022-08-17T05:40:49.187Z,47.65
2022-08-17T05:43:22.831Z,48.20
2022-08-17T05:46:07.975Z,44.97
2022-08-17T05:48:47.002Z,46.13
2022-08-17T05:51:26.000Z,49.78
2022-08-17T05:54:24.493Z,49.30
2022-08-17T05:57:06.809Z,54.22
2022-08-17T05:59:59.069Z,49.20
2022-08-17T06:02:32.195Z,51.75
2022-08-17T06:05:11.213Z,47.20
2022-08-17T06:07:52.147Z,50.38
2022-08-17T06:10:32.423Z,50.70
2022-08-17T06:13:31.850Z,50.40
2022-08-17T06:16:31.104Z,50.60
2022-08-17T06:19:14.888Z,47.13
2022-08-17T06:21:46.312Z,46.97
2022-08-17T06:24:36.961Z,48.10
2022-08-17T06:27:16.381Z,43.97
2022-08-17T06:30:07.075Z,46.05
2022-08-17T06:32:39.332Z,42.33
2022-08-17T06:35:08.749Z,40.50
2022-08-17T06:38:38.548Z,41.10
2022-08-17T06:41:32.793Z,36.35
2022-08-17T06:48:08.454Z,35.42
2022-08-17T06:51:20.728Z,38.35
2022-08-17T07:01:12.401Z,39.97
2022-08-17T07:03:54.769Z,36.42
2022-08-17T07:06:37.999Z,38.00
2022-08-17T07:09:34.271Z,35.88
2022-08-17T07:13:07.239Z,33.20
2022-08-17T07:15:51.780Z,32.63
2022-08-17T07:21:55.195Z,31.83
2022-08-17T07:32:26.480Z,31.58
2022-08-17T07:42:46.762Z,25.70
2022-08-17T07:49:09.468Z,25.77
2022-08-17T07:51:57.397Z,29.05
2022-08-17T07:54:41.335Z,28.08
2022-08-17T07:57:12.837Z,25.83
2022-08-17T08:00:12.716Z,24.23
2022-08-17T08:02:47.446Z,25.75
2022-08-17T08:05:31.715Z,23.77
2022-08-17T08:08:21.741Z,23.75
2022-08-17T08:11:02.906Z,23.20
2022-08-17T08:13:32.561Z,24.77
2022-08-17T08:16:25.077Z,24.17
2022-08-17T08:18:57.564Z,23.08
2022-08-17T08:21:50.321Z,22.88
2022-08-17T08:24:45.089Z,26.58
2022-08-17T08:27:16.127Z,25.05
2022-08-17T08:29:49.348Z,26.83
2022-08-17T08:32:52.408Z,31.25
2022-08-17T08:35:34.780Z,28.35
2022-08-17T08:38:32.038Z,27.17
2022-08-17T08:41:24.724Z,30.48
2022-08-17T08:44:19.436Z,30.15
2022-08-17T08:47:14.482Z,34.05
2022-08-17T08:50:04.823Z,28.92
2022-08-17T08:52:56.294Z,30.38
2022-08-17T08:55:26.513Z,31.08
2022-08-17T08:58:01.102Z,27.30
2022-08-17T09:00:35.625Z,26.85
2022-08-17T09:03:11.485Z,27.42
2022-08-17T09:06:33.230Z,27.83
2022-08-17T09:09:29.343Z,26.85
2022-08-17T09:12:09.306Z,25.75
2022-08-17T09:14:47.193Z,26.40
2022-08-17T09:17:19.537Z,25.90
2022-08-17T09:20:01.298Z,25.35
2022-08-17T09:22:37.615Z,30.15
2022-08-17T09:25:12.775Z,27.80
2022-08-17T09:27:52.037Z,25.23
2022-08-17T09:30:20.646Z,25.25
2022-08-17T09:32:56.648Z,24.83
2022-08-17T09:35:36.471Z,26.52
2022-08-17T09:38:32.649Z,26.55
2022-08-17T09:41:12.592Z,25.77
2022-08-17T09:43:53.209Z,25.02
2022-08-17T09:46:31.952Z,24.35
2022-08-17T09:49:09.825Z,27.13
2022-08-17T09:52:02.684Z,27.27
2022-08-17T09:54:39.885Z,24.50
2022-08-17T09:57:28.443Z,26.58
2022-08-17T10:00:16.790Z,28.88
2022-08-17T10:03:21.919Z,28.42
2022-08-17T10:05:56.807Z,27.73
2022-08-17T10:08:41.576Z,29.17
2022-08-17T10:11:54.615Z,25.92
2022-08-17T10:15:07.742Z,26.90
2022-08-17T10:18:14.989Z,27.77
2022-08-17T10:20:46.688Z,30.00
2022-08-17T10:23:49.049Z,26.73
2022-08-17T10:26:27.385Z,30.58
2022-08-17T10:29:10.215Z,27.27
2022-08-17T10:31:48.591Z,29.90
2022-08-17T10:35:10.114Z,32.15
2022-08-17T10:38:04.726Z,28.55
2022-08-17T10:40:57.740Z,30.65
2022-08-17T10:44:02.204Z,30.15
2022-08-17T10:47:06.759Z,28.80
2022-08-17T10:49:36.833Z,29.58
2022-08-17T10:52:25.066Z,32.75
2022-08-17T10:54:58.006Z,31.08
2022-08-17T10:57:32.206Z,29.10
2022-08-17T11:00:01.827Z,33.25
2022-08-17T11:02:53.351Z,34.30
2022-08-17T11:05:46.907Z,34.50
2022-08-17T11:08:13.847Z,33.47
2022-08-17T11:11:36.115Z,33.58
2022-08-17T11:14:17.363Z,33.95
2022-08-17T11:17:02.623Z,32.50
2022-08-17T11:20:11.624Z,32.85
2022-08-17T11:23:12.907Z,36.08
2022-08-17T11:25:41.609Z,33.20
2022-08-17T11:28:22.193Z,37.38
2022-08-17T11:30:52.542Z,37.80
2022-08-17T11:33:36.769Z,35.03
2022-08-17T11:36:33.040Z,34.72
2022-08-17T11:39:06.041Z,33.67
2022-08-17T11:42:05.851Z,33.08
2022-08-17T11:44:47.143Z,36.15
2022-08-17T11:48:26.736Z,36.63
2022-08-17T11:51:19.478Z,35.63
2022-08-17T11:53:46.626Z,36.95
2022-08-17T11:56:44.243Z,48.25
2022-08-17T11:59:45.234Z,30.95
2022-08-17T12:02:35.497Z,39.22
2022-08-17T12:05:17.533Z,37.55
2022-08-17T12:08:06.156Z,39.50
2022-08-17T12:10:37.540Z,37.40
2022-08-17T12:13:15.040Z,38.65
2022-08-17T12:15:50.238Z,41.83
2022-08-17T12:18:32.789Z,37.75
2022-08-17T12:21:29.762Z,37.97
2022-08-17T12:24:00.739Z,41.92
2022-08-17T12:26:38.874Z,43.75
2022-08-17T12:29:38.868Z,45.58
2022-08-17T12:32:04.894Z,41.15
2022-08-17T12:34:42.087Z,44.15
2022-08-17T12:37:31.691Z,43.78
2022-08-17T12:40:24.425Z,46.85
2022-08-17T12:43:23.509Z,42.65
2022-08-17T12:46:13.291Z,47.85
2022-08-17T12:48:56.606Z,46.60
2022-08-17T12:51:36.791Z,42.78
2022-08-17T12:54:04.473Z,44.85
2022-08-17T12:56:32.262Z,45.38
2022-08-17T12:59:00.184Z,45.42
2022-08-17T13:01:29.661Z,44.95
2022-08-17T13:04:00.100Z,43.05
2022-08-17T13:06:36.073Z,46.60
2022-08-17T13:09:15.922Z,48.83
2022-08-17T13:11:54.566Z,46.35
2022-08-17T13:14:22.584Z,50.10
2022-08-17T13:16:54.183Z,49.20
2022-08-17T13:19:40.498Z,47.38
2022-08-17T13:22:12.275Z,52.25
2022-08-17T13:24:49.550Z,50.95
2022-08-17T13:27:21.622Z,51.80
2022-08-17T13:29:57.525Z,53.15
2022-08-17T13:32:31.084Z,45.95
2022-08-17T13:35:14.413Z,53.10
2022-08-17T13:38:07.953Z,51.83
2022-08-17T13:40:43.286Z,57.90
2022-08-17T13:43:12.148Z,56.15
2022-08-17T13:45:51.337Z,59.40
2022-08-17T13:48:34.173Z,59.30
2022-08-17T13:51:02.449Z,47.83
2022-08-17T13:53:40.144Z,56.75
2022-08-17T13:56:33.321Z,52.22
2022-08-17T13:59:06.752Z,56.88
2022-08-17T14:01:51.064Z,54.20
2022-08-17T14:04:24.155Z,55.65
2022-08-17T14:07:01.276Z,59.50
2022-08-17T14:09:48.779Z,56.03
2022-08-17T14:12:20.397Z,47.20
2022-08-17T14:14:47.756Z,61.90
2022-08-17T14:17:15.156Z,64.82
2022-08-17T14:19:42.245Z,60.38
2022-08-17T14:22:17.896Z,62.22
2022-08-17T14:24:45.581Z,60.42
2022-08-17T14:27:12.569Z,66.80
2022-08-17T14:29:41.338Z,67.35
2022-08-17T14:32:17.573Z,55.75
2022-08-17T14:34:53.019Z,79.85
2022-08-17T14:37:25.569Z,71.85
2022-08-17T14:40:02.415Z,65.50
2022-08-17T14:42:34.254Z,67.70
2022-08-17T14:45:27.013Z,78.57
2022-08-17T14:48:00.569Z,74.10
2022-08-17T14:50:31.910Z,75.78
2022-08-17T14:53:01.576Z,71.75
2022-08-17T14:58:27.431Z,70.93
2022-08-17T15:01:01.462Z,78.20
2022-08-17T15:04:05.760Z,69.20
2022-08-17T15:06:39.525Z,61.25
2022-08-17T15:09:09.208Z,61.83
2022-08-17T15:11:36.899Z,60.00
2022-08-17T15:14:13.643Z,54.55
2022-08-17T15:16:40.899Z,51.75
2022-08-17T15:19:08.872Z,57.45
2022-08-17T15:21:37.146Z,50.60
2022-08-17T15:24:05.325Z,52.13
2022-08-17T15:26:32.949Z,42.22
2022-08-17T15:29:00.348Z,43.28
2022-08-17T15:31:31.794Z,47.00
2022-08-17T15:34:01.709Z,44.15
2022-08-17T15:36:29.231Z,50.30
2022-08-17T15:38:56.473Z,52.05
2022-08-17T15:41:23.989Z,55.30
2022-08-17T15:46:35.874Z,52.67
2022-08-17T15:49:04.434Z,52.08
2022-08-17T15:51:36.627Z,53.05
2022-08-17T15:54:19.392Z,57.58
2022-08-17T15:56:50.860Z,63.45
2022-08-17T15:59:20.755Z,55.30
2022-08-17T16:03:12.934Z,57.63
2022-08-17T16:04:45.873Z,64.63
2022-08-17T16:07:26.713Z,66.43
2022-08-17T16:09:54.162Z,58.45
2022-08-17T16:12:24.781Z,62.60
2022-08-17T16:14:55.588Z,59.15
2022-08-17T16:17:38.503Z,63.38
2022-08-17T16:20:10.064Z,62.67
2022-08-17T16:22:50.828Z,61.47
2022-08-17T16:25:40.290Z,61.42
2022-08-17T16:28:43.267Z,65.80
2022-08-17T16:31:18.002Z,58.53
2022-08-17T16:34:16.100Z,64.35
2022-08-17T16:36:51.715Z,64.60
2022-08-17T16:39:26.069Z,60.65
2022-08-17T16:42:02.582Z,72.93
2022-08-17T16:44:43.742Z,60.47
2022-08-17T16:47:46.171Z,63.00
2022-08-17T16:50:27.926Z,57.90
2022-08-17T16:53:44.728Z,61.83
2022-08-17T16:56:23.346Z,70.40
2022-08-17T16:58:59.886Z,65.07
2022-08-17T17:02:13.836Z,64.82
2022-08-17T17:05:26.627Z,65.47
2022-08-17T17:08:23.266Z,61.95
2022-08-17T17:11:00.729Z,61.17
2022-08-17T17:13:56.983Z,63.00
2022-08-17T17:17:21.265Z,63.35
2022-08-17T17:20:01.807Z,63.67
2022-08-17T17:22:57.020Z,57.97
2022-08-17T17:25:50.838Z,58.20
2022-08-17T17:28:44.704Z,60.63
2022-08-17T17:31:20.403Z,52.28
2022-08-17T17:34:15.200Z,53.45
2022-08-17T17:40:08.941Z,53.63
2022-08-17T17:43:27.341Z,55.22
2022-08-17T17:46:29.385Z,57.50
2022-08-17T17:49:38.505Z,65.32
2022-08-17T17:52:42.802Z,58.22
2022-08-17T17:55:41.625Z,54.88
2022-08-17T17:58:37.064Z,55.78
2022-08-17T18:01:41.517Z,50.90
2022-08-17T18:04:44.724Z,54.30
2022-08-17T18:07:57.955Z,53.60
2022-08-17T18:15:00.123Z,51.10
2022-08-17T18:18:20.568Z,50.22
2022-08-17T18:31:56.110Z,60.20
2022-08-17T18:39:01.941Z,57.33
2022-08-17T18:41:54.436Z,61.53
2022-08-17T18:45:29.778Z,57.15
2022-08-17T18:48:20.657Z,56.13
2022-08-17T18:54:57.213Z,64.30
2022-08-17T19:01:10.555Z,70.70
2022-08-17T19:07:38.760Z,77.07
2022-08-17T19:10:29.695Z,72.40
2022-08-17T19:13:13.871Z,70.03
2022-08-17T19:15:41.011Z,68.90
2022-08-17T19:18:24.216Z,73.15
2022-08-17T19:21:11.302Z,80.18
2022-08-17T19:23:54.181Z,75.38
2022-08-17T19:26:54.600Z,77.32
2022-08-17T19:29:30.116Z,78.15
2022-08-17T19:31:58.868Z,79.40
2022-08-17T19:34:33.637Z,71.97
2022-08-17T19:37:27.459Z,68.90
2022-08-17T19:43:40.588Z,83.25
2022-08-17T19:46:28.949Z,82.13
2022-08-17T19:49:34.503Z,87.72
2022-08-17T19:52:43.180Z,82.83
2022-08-17T19:55:20.585Z,73.43
2022-08-17T19:58:01.298Z,67.15
2022-08-17T20:00:29.237Z,86.50
2022-08-17T20:03:08.093Z,83.97
2022-08-17T20:06:11.536Z,86.15
2022-08-17T20:08:45.553Z,86.90
2022-08-17T20:11:23.337Z,75.80
2022-08-17T20:14:00.016Z,83.72
2022-08-17T20:16:27.047Z,90.32
2022-08-17T20:19:00.427Z,82.93
2022-08-17T20:21:50.505Z,78.55
2022-08-17T20:24:28.867Z,77.82
2022-08-17T20:26:59.655Z,77.22
2022-08-17T20:29:39.677Z,76.13
2022-08-17T20:32:17.699Z,67.75
2022-08-17T20:35:00.236Z,71.53
2022-08-17T20:37:31.906Z,71.63
2022-08-17T20:39:58.748Z,68.30
2022-08-17T20:42:27.122Z,62.53
2022-08-17T20:45:02.341Z,69.35
2022-08-17T20:47:34.076Z,78.38
2022-08-17T20:50:41.488Z,67.85
2022-08-17T20:53:13.570Z,76.40
2022-08-17T20:55:52.225Z,78.38
2022-08-17T20:58:30.990Z,65.68
2022-08-17T21:00:58.732Z,49.53
2022-08-17T21:03:28.369Z,61.45
2022-08-17T21:06:18.528Z,52.80
2022-08-17T21:08:58.765Z,58.90
2022-08-17T21:11:57.060Z,57.35
2022-08-17T21:14:31.601Z,59.60
2022-08-17T21:17:29.580Z,50.10
2022-08-17T21:20:10.981Z,53.15
2022-08-17T21:22:38.472Z,56.17
2022-08-17T21:25:34.984Z,49.20
2022-08-17T21:28:30.043Z,50.53
2022-08-17T21:31:08.932Z,54.17
2022-08-17T21:33:39.738Z,52.72
2022-08-17T21:36:12.557Z,51.72
2022-08-17T21:38:53.442Z,53.28
2022-08-17T21:41:34.347Z,52.20
2022-08-17T21:44:18.597Z,50.30
2022-08-17T21:46:50.180Z,51.65
2022-08-17T21:49:20.232Z,50.45
2022-08-17T21:51:54.267Z,51.13
2022-08-17T21:54:31.761Z,44.92
2022-08-17T21:57:00.769Z,46.22
2022-08-17T21:59:39.355Z,44.58
2022-08-17T22:02:19.087Z,44.97
2022-08-17T22:04:58.536Z,43.72
2022-08-17T22:07:38.766Z,44.65
2022-08-17T22:10:08.573Z,45.10
2022-08-17T22:12:35.516Z,45.42
2022-08-17T22:15:07.440Z,46.72
2022-08-17T22:17:45.396Z,44.35
2022-08-17T22:20:22.621Z,49.88
2022-08-17T22:23:08.031Z,48.47
2022-08-17T22:25:41.183Z,42.42
2022-08-17T22:28:12.234Z,43.78
2022-08-17T22:31:01.550Z,44.30
2022-08-17T22:33:43.126Z,45.15
2022-08-17T22:36:29.443Z,45.28
2022-08-17T22:38:58.271Z,40.55
2022-08-17T22:41:32.124Z,41.88
2022-08-17T22:44:09.123Z,42.83
2022-08-17T22:46:40.928Z,42.88
2022-08-17T22:49:08.365Z,43.00
2022-08-17T22:51:36.369Z,39.85
2022-08-17T22:54:35.535Z,43.25
2022-08-17T22:57:24.033Z,41.17
2022-08-17T22:59:55.621Z,38.03
2022-08-17T23:02:32.249Z,40.90
2022-08-17T23:05:14.382Z,41.70
2022-08-17T23:07:42.518Z,33.25
2022-08-17T23:10:11.606Z,42.40
2022-08-17T23:12:39.904Z,36.15
2022-08-17T23:15:19.032Z,36.47
2022-08-17T23:17:46.042Z,40.75
2022-08-17T23:20:15.148Z,38.97
2022-08-17T23:22:52.081Z,36.75
2022-08-17T23:25:26.878Z,35.90
2022-08-17T23:27:54.554Z,31.73
2022-08-17T23:30:27.288Z,33.22
2022-08-17T23:32:55.863Z,33.45
2022-08-17T23:35:39.189Z,30.38
2022-08-17T23:38:11.302Z,30.98
2022-08-17T23:40:47.126Z,33.15
2022-08-17T23:43:25.726Z,29.85
2022-08-17T23:46:03.981Z,29.80
2022-08-17T23:48:36.932Z,33.20
2022-08-17T23:51:08.669Z,35.35
2022-08-17T23:53:36.763Z,35.42
2022-08-17T23:56:09.424Z,31.98
2022-08-17T23:58:44.998Z,37.70
